Time;durP1;ratioP1;P1;durP2;ratioP2;P2;SDS_P1;SDS_P2;PMS_P1;PMS_P2;Temp;Humidity;BMP_temperature;BMP_pressure;BME280_temperature;BME280_humidity;BME280_pressure;Samples;Min_cycle;Max_cycle;Signal;HPM_P1;HPM_P2
2023/04/23 00:00:12;;;;;;;10.30;5.70;;;18.30;46.90;;;;;;6239721;23;20018;-83
2023/04/23 00:02:43;;;;;;;9.82;5.93;;;18.30;47.10;;;;;;6212174;23;20070;-84
2023/04/23 00:05:11;;;;;;;11.68;5.75;;;18.20;47.20;;;;;;6214237;23;20020;-84
2023/04/23 00:07:38;;;;;;;12.23;6.47;;;18.20;47.10;;;;;;6213792;23;20013;-83
2023/04/23 00:10:07;;;;;;;9.98;6.13;;;18.30;47.10;;;;;;6213719;22;20008;-84
2023/04/23 00:12:33;;;;;;;11.63;6.38;;;18.30;47.20;;;;;;6189644;23;20004;-84
2023/04/23 00:14:59;;;;;;;10.63;6.47;;;18.20;47.20;;;;;;6264162;22;20016;-84
2023/04/23 00:17:25;;;;;;;10.45;6.13;;;18.20;47.20;;;;;;6238529;23;20024;-81
2023/04/23 00:19:52;;;;;;;13.30;6.35;;;18.20;47.30;;;;;;6239819;22;20407;-84
2023/04/23 00:22:19;;;;;;;11.93;6.32;;;18.20;47.50;;;;;;6238578;23;20387;-83
2023/04/23 00:24:45;;;;;;;10.88;6.32;;;18.20;47.60;;;;;;6213959;23;20007;-83
2023/04/23 00:27:11;;;;;;;13.57;6.43;;;18.20;47.70;;;;;;6213853;23;20103;-84
2023/04/23 00:29:37;;;;;;;14.60;6.43;;;18.20;47.60;;;;;;6213660;23;20028;-83
2023/04/23 00:32:03;;;;;;;13.32;6.80;;;18.20;47.70;;;;;;6213636;23;20022;-83
2023/04/23 00:34:30;;;;;;;13.05;6.03;;;18.20;47.70;;;;;;6188417;23;20020;-84
2023/04/23 00:36:55;;;;;;;10.10;5.82;;;18.20;47.90;;;;;;6238334;22;20027;-81
2023/04/23 00:39:21;;;;;;;12.27;6.07;;;18.20;47.70;;;;;;6240669;23;20383;-81
2023/04/23 00:41:49;;;;;;;13.75;6.18;;;18.20;47.80;;;;;;6213321;23;20035;-82
2023/04/23 00:44:15;;;;;;;10.30;6.25;;;18.20;47.90;;;;;;6209806;23;20023;-82
2023/04/23 00:46:42;;;;;;;14.05;6.90;;;18.20;48.10;;;;;;6212978;23;20588;-82
2023/04/23 00:49:08;;;;;;;10.32;6.07;;;18.20;47.90;;;;;;6213582;22;20023;-79
2023/04/23 00:51:34;;;;;;;12.10;6.10;;;18.10;47.90;;;;;;6240619;23;20047;-80
2023/04/23 00:54:00;;;;;;;14.70;6.50;;;18.20;48.00;;;;;;6238783;23;20031;-80
2023/04/23 00:56:26;;;;;;;15.57;6.70;;;18.20;48.00;;;;;;6239397;22;20028;-80
2023/04/23 00:58:53;;;;;;;12.95;6.70;;;18.10;48.10;;;;;;6238599;23;20035;-80
2023/04/23 01:01:20;;;;;;;11.80;6.50;;;18.10;48.00;;;;;;6238058;23;20016;-80
2023/04/23 01:03:51;;;;;;;12.85;6.50;;;18.10;48.10;;;;;;6237935;22;20008;-80
2023/04/23 01:06:18;;;;;;;12.38;6.82;;;18.10;47.90;;;;;;6240552;23;20008;-80
2023/04/23 01:08:46;;;;;;;12.77;6.40;;;18.10;48.00;;;;;;6238383;23;20028;-80
2023/04/23 01:11:15;;;;;;;10.35;6.40;;;18.10;48.10;;;;;;6238415;23;20024;-81
2023/04/23 01:13:42;;;;;;;10.80;6.07;;;18.10;48.10;;;;;;6238265;23;20028;-81
2023/04/23 01:16:09;;;;;;;13.75;6.25;;;18.10;48.10;;;;;;6213218;22;20352;-80
2023/04/23 01:18:36;;;;;;;11.98;5.93;;;18.00;48.00;;;;;;6240611;23;20429;-81
2023/04/23 01:21:03;;;;;;;14.95;6.43;;;18.10;48.10;;;;;;6238415;23;20044;-80
2023/04/23 01:23:30;;;;;;;13.95;7.25;;;18.10;48.00;;;;;;6213466;23;20023;-82
2023/04/23 01:25:57;;;;;;;12.05;6.88;;;18.00;48.00;;;;;;6239392;22;20016;-80
2023/04/23 01:28:23;;;;;;;15.73;6.35;;;18.00;48.10;;;;;;6237889;23;20020;-80
2023/04/23 01:30:49;;;;;;;15.13;6.53;;;18.10;48.10;;;;;;6212897;22;20008;-80
2023/04/23 01:33:16;;;;;;;13.70;7.00;;;18.10;48.10;;;;;;6213548;23;20031;-83
2023/04/23 01:35:43;;;;;;;14.50;6.53;;;18.00;48.10;;;;;;6212676;23;20848;-83
2023/04/23 01:38:10;;;;;;;12.85;6.43;;;18.00;48.40;;;;;;6212922;23;20024;-83
2023/04/23 01:40:37;;;;;;;13.32;6.68;;;18.00;48.40;;;;;;6238572;23;20020;-84
2023/04/23 01:43:04;;;;;;;12.73;6.43;;;18.00;48.50;;;;;;6213201;22;20012;-84
2023/04/23 01:45:31;;;;;;;14.13;6.72;;;18.00;48.30;;;;;;6239089;23;20710;-84
2023/04/23 01:47:58;;;;;;;12.98;7.13;;;18.00;48.50;;;;;;6238711;23;20012;-82
2023/04/23 01:50:26;;;;;;;11.35;6.53;;;18.00;48.40;;;;;;6238290;23;20412;-82
2023/04/23 01:52:52;;;;;;;10.57;6.47;;;17.90;48.30;;;;;;6239017;23;20027;-83
2023/04/23 01:55:19;;;;;;;10.80;6.38;;;18.00;48.40;;;;;;6213488;23;20078;-83
2023/04/23 01:57:46;;;;;;;15.65;6.60;;;18.00;48.40;;;;;;6188346;23;20074;-84
2023/04/23 02:00:15;;;;;;;12.55;6.25;;;17.90;48.40;;;;;;6188366;23;20012;-84
2023/04/23 02:02:43;;;;;;;12.65;6.82;;;18.00;48.50;;;;;;6238553;23;20013;-83
2023/04/23 02:05:17;;;;;;;11.35;6.85;;;17.90;48.40;;;;;;6187749;23;20074;-83
2023/04/23 02:07:47;;;;;;;12.50;6.30;;;17.90;48.40;;;;;;6214161;23;20024;-82
2023/04/23 02:10:13;;;;;;;14.48;6.22;;;18.00;48.30;;;;;;6241907;22;20341;-83
2023/04/23 02:12:40;;;;;;;9.38;5.60;;;17.90;48.30;;;;;;6242462;23;20040;-82
2023/04/23 02:15:10;;;;;;;10.90;5.90;;;18.00;48.30;;;;;;6213077;23;20020;-82
2023/04/23 02:17:38;;;;;;;11.95;6.18;;;17.90;48.40;;;;;;6239825;23;20055;-81
2023/04/23 02:20:06;;;;;;;9.13;5.95;;;17.90;48.40;;;;;;6214368;23;20039;-81
2023/04/23 02:22:32;;;;;;;15.13;6.32;;;17.90;48.50;;;;;;6214870;23;20475;-81
2023/04/23 02:24:58;;;;;;;10.95;6.07;;;17.90;48.40;;;;;;6214572;22;20063;-82
2023/04/23 02:27:24;;;;;;;12.55;6.32;;;17.90;48.40;;;;;;6190317;23;20066;-81
2023/04/23 02:29:50;;;;;;;11.70;6.80;;;17.90;48.50;;;;;;6240093;23;20023;-81
2023/04/23 02:32:16;;;;;;;13.25;6.70;;;17.90;48.50;;;;;;6214738;23;20020;-82
2023/04/23 02:34:42;;;;;;;11.23;5.82;;;17.90;48.40;;;;;;6214881;23;20294;-83
2023/04/23 02:37:08;;;;;;;14.43;6.65;;;17.90;48.40;;;;;;6240368;22;20266;-82
2023/04/23 02:39:34;;;;;;;9.88;5.90;;;17.90;48.50;;;;;;6215364;23;20011;-83
2023/04/23 02:42:00;;;;;;;12.15;6.72;;;17.90;48.50;;;;;;6240511;23;20539;-81
2023/04/23 02:44:26;;;;;;;10.90;6.50;;;17.90;48.70;;;;;;6240015;23;20043;-82
2023/04/23 02:46:52;;;;;;;13.15;6.40;;;17.90;48.70;;;;;;6237548;23;20242;-81
2023/04/23 02:49:19;;;;;;;10.50;6.70;;;17.90;48.60;;;;;;6240169;23;20486;-82
2023/04/23 02:51:45;;;;;;;11.27;6.28;;;17.90;48.60;;;;;;6214920;23;20012;-81
2023/04/23 02:54:13;;;;;;;11.02;5.97;;;17.90;48.70;;;;;;6239963;23;20511;-82
2023/04/23 02:56:39;;;;;;;13.32;6.28;;;17.90;48.60;;;;;;6214221;23;20099;-82
2023/04/23 02:59:06;;;;;;;11.70;6.32;;;17.90;48.70;;;;;;6189228;23;20016;-81
2023/04/23 03:01:32;;;;;;;13.25;6.85;;;17.80;48.70;;;;;;6189649;23;20019;-82
2023/04/23 03:03:59;;;;;;;11.13;6.32;;;17.90;48.80;;;;;;6189653;22;20452;-81
2023/04/23 03:06:26;;;;;;;11.80;6.45;;;17.90;48.70;;;;;;6189527;23;20051;-81
2023/04/23 03:08:52;;;;;;;12.50;6.53;;;17.90;48.70;;;;;;6214522;23;20066;-82
2023/04/23 03:11:18;;;;;;;13.40;6.65;;;17.90;48.90;;;;;;6239703;23;20347;-83
2023/04/23 03:13:44;;;;;;;10.48;5.97;;;17.90;48.90;;;;;;6213585;23;20024;-83
2023/04/23 03:16:10;;;;;;;12.80;6.70;;;17.90;49.00;;;;;;6213855;22;20016;-84
2023/04/23 03:18:36;;;;;;;10.75;6.28;;;17.90;48.90;;;;;;6239530;23;20040;-84
2023/04/23 03:21:02;;;;;;;12.10;6.80;;;17.90;48.90;;;;;;6212303;23;20012;-80
2023/04/23 03:23:29;;;;;;;11.23;6.80;;;17.90;49.10;;;;;;6214241;23;20090;-81
2023/04/23 03:25:54;;;;;;;17.73;7.55;;;17.90;49.20;;;;;;6239315;23;20047;-82
2023/04/23 03:28:20;;;;;;;15.80;7.20;;;17.90;49.70;;;;;;6239887;23;20082;-83
2023/04/23 03:30:47;;;;;;;12.82;7.00;;;17.90;49.20;;;;;;6214284;22;20019;-81
2023/04/23 03:33:13;;;;;;;14.00;7.15;;;17.90;49.20;;;;;;6239833;23;20012;-82
2023/04/23 03:35:39;;;;;;;12.15;7.25;;;17.90;49.10;;;;;;6214131;23;20019;-82
2023/04/23 03:38:11;;;;;;;14.93;7.45;;;17.90;49.00;;;;;;6239613;23;20099;-83
2023/04/23 03:40:37;;;;;;;13.32;7.47;;;18.00;49.00;;;;;;6213989;23;20538;-81
2023/04/23 03:43:05;;;;;;;13.07;7.07;;;18.00;49.00;;;;;;6239110;22;20016;-80
2023/04/23 03:45:57;;;;;;;13.63;7.10;;;18.00;49.10;;;;;;6237554;22;20008;-81
2023/04/23 03:48:23;;;;;;;10.40;7.20;;;18.00;49.20;;;;;;6214064;23;20015;-80
2023/04/23 03:50:50;;;;;;;15.73;7.20;;;18.00;49.20;;;;;;6238655;23;20505;-79
2023/04/23 03:53:32;;;;;;;15.77;7.57;;;18.10;49.30;;;;;;6239160;23;20227;-81
2023/04/23 03:56:34;;;;;;;13.82;7.30;;;18.10;49.20;;;;;;6223047;23;20048;-81
2023/04/23 03:59:16;;;;;;;11.25;6.63;;;18.10;49.30;;;;;;6217243;23;20042;-81
2023/04/23 04:01:44;;;;;;;12.23;7.10;;;18.10;49.40;;;;;;6213206;23;20017;-80
2023/04/23 04:04:10;;;;;;;12.98;7.22;;;18.10;49.40;;;;;;6238646;22;20023;-80
2023/04/23 04:06:36;;;;;;;13.32;6.63;;;18.20;49.40;;;;;;6239210;23;20026;-81
2023/04/23 04:09:02;;;;;;;13.48;6.97;;;18.20;49.30;;;;;;6213521;23;20056;-81
2023/04/23 04:11:28;;;;;;;10.25;6.20;;;18.20;49.20;;;;;;6238781;23;20048;-81
2023/04/23 04:13:54;;;;;;;11.20;6.45;;;18.20;49.20;;;;;;6213615;23;20486;-81
2023/04/23 04:16:20;;;;;;;11.95;6.90;;;18.30;49.30;;;;;;6238335;23;20091;-80
2023/04/23 04:18:46;;;;;;;12.05;7.20;;;18.30;49.20;;;;;;6237356;23;20099;-81
2023/04/23 04:21:12;;;;;;;14.02;7.13;;;18.30;49.20;;;;;;6238815;23;20471;-80
2023/04/23 04:23:38;;;;;;;12.48;7.07;;;18.30;49.20;;;;;;6238768;23;20020;-80
2023/04/23 04:26:06;;;;;;;11.85;6.65;;;18.40;49.20;;;;;;6213247;23;20030;-81
2023/04/23 04:28:35;;;;;;;11.10;6.45;;;18.40;49.10;;;;;;6213833;23;20062;-80
2023/04/23 04:31:01;;;;;;;11.63;6.85;;;18.40;48.90;;;;;;6238591;22;20008;-81
2023/04/23 04:33:28;;;;;;;10.85;6.38;;;18.50;48.80;;;;;;6264611;22;20035;-80
2023/04/23 04:35:55;;;;;;;12.50;6.55;;;18.50;48.60;;;;;;6238683;23;20087;-79
2023/04/23 04:38:21;;;;;;;10.65;6.28;;;18.50;48.50;;;;;;6240027;22;20106;-80
2023/04/23 04:40:47;;;;;;;10.63;6.78;;;18.50;48.30;;;;;;6213078;23;20036;-79
2023/04/23 04:43:15;;;;;;;11.38;6.40;;;18.60;48.30;;;;;;6211871;23;20012;-79
2023/04/23 04:45:41;;;;;;;9.60;6.65;;;18.70;48.20;;;;;;6240734;23;20336;-79
2023/04/23 04:48:07;;;;;;;8.50;6.25;;;18.70;48.10;;;;;;6239807;22;20091;-79
2023/04/23 04:50:33;;;;;;;9.95;6.13;;;18.80;47.90;;;;;;6209137;23;20027;-79
2023/04/23 04:52:59;;;;;;;10.55;6.10;;;18.90;47.90;;;;;;6239914;22;20366;-79
2023/04/23 04:55:26;;;;;;;9.43;6.13;;;18.90;47.80;;;;;;6239590;22;20039;-79
2023/04/23 04:57:52;;;;;;;8.68;6.00;;;19.00;47.80;;;;;;6239623;22;20102;-78
2023/04/23 05:00:24;;;;;;;11.27;6.18;;;19.00;47.50;;;;;;6238949;23;20011;-79
2023/04/23 05:02:51;;;;;;;9.85;6.22;;;19.10;47.50;;;;;;6212285;23;20020;-78
2023/04/23 05:05:17;;;;;;;10.40;5.82;;;19.20;47.40;;;;;;6239433;22;20023;-79
2023/04/23 05:07:43;;;;;;;8.60;5.63;;;19.30;47.30;;;;;;6239441;22;20725;-78
2023/04/23 05:10:10;;;;;;;10.25;6.40;;;19.30;47.20;;;;;;6212433;22;20020;-79
2023/04/23 05:12:36;;;;;;;8.85;5.93;;;19.40;47.10;;;;;;6238467;23;20019;-79
2023/04/23 05:15:03;;;;;;;8.88;5.57;;;19.50;47.00;;;;;;6213114;23;20048;-79
2023/04/23 05:17:29;;;;;;;7.80;5.65;;;19.50;46.90;;;;;;6238250;23;20035;-79
2023/04/23 05:19:55;;;;;;;9.63;5.75;;;19.50;46.70;;;;;;6263593;22;20472;-79
2023/04/23 05:22:22;;;;;;;7.38;5.38;;;19.60;46.70;;;;;;6236274;22;20012;-80
2023/04/23 05:24:48;;;;;;;9.30;4.95;;;19.70;46.70;;;;;;6212168;22;20012;-78
2023/04/23 05:27:14;;;;;;;7.57;4.72;;;19.70;46.60;;;;;;6239425;23;20012;-78
2023/04/23 05:29:40;;;;;;;7.18;5.45;;;19.70;47.10;;;;;;6239216;22;20020;-78
2023/04/23 05:32:06;;;;;;;7.80;5.00;;;19.80;46.40;;;;;;6211950;23;20028;-78
2023/04/23 05:34:31;;;;;;;8.30;4.90;;;19.90;46.30;;;;;;6238833;22;20031;-78
2023/04/23 05:36:57;;;;;;;8.50;5.00;;;19.90;46.30;;;;;;6239428;22;20016;-77
2023/04/23 05:39:23;;;;;;;7.47;4.57;;;19.90;46.20;;;;;;6237857;23;20066;-77
2023/04/23 05:41:49;;;;;;;6.13;4.32;;;19.90;46.00;;;;;;6212665;23;20027;-78
2023/04/23 05:44:15;;;;;;;7.18;4.35;;;20.00;46.00;;;;;;6240918;22;20019;-78
2023/04/23 05:46:41;;;;;;;6.80;4.47;;;20.00;45.90;;;;;;6241107;22;20094;-78
2023/04/23 05:49:07;;;;;;;10.18;4.45;;;20.00;45.90;;;;;;6239150;22;20390;-79
2023/04/23 05:51:33;;;;;;;5.78;3.95;;;20.00;45.90;;;;;;6190227;23;20041;-82
2023/04/23 05:53:59;;;;;;;6.05;4.10;;;20.00;45.80;;;;;;6241408;22;20418;-80
2023/04/23 05:56:25;;;;;;;4.97;3.40;;;20.10;45.80;;;;;;6241269;22;20055;-79
2023/04/23 05:58:51;;;;;;;5.20;3.55;;;20.10;45.80;;;;;;6239330;23;20071;-80
2023/04/23 06:01:17;;;;;;;7.07;3.72;;;20.20;45.80;;;;;;6239812;23;20016;-80
2023/04/23 06:03:44;;;;;;;4.72;3.45;;;20.20;45.60;;;;;;6214689;23;20479;-80
2023/04/23 06:06:13;;;;;;;5.35;3.35;;;20.30;45.60;;;;;;6241311;22;20023;-81
2023/04/23 06:08:39;;;;;;;7.03;3.70;;;20.30;45.60;;;;;;6239602;23;20016;-80
2023/04/23 06:11:06;;;;;;;4.70;3.33;;;20.40;45.50;;;;;;6214339;23;20036;-80
2023/04/23 06:13:33;;;;;;;3.85;2.70;;;20.40;45.50;;;;;;6214282;23;20027;-80
2023/04/23 06:15:59;;;;;;;4.10;2.80;;;20.50;45.40;;;;;;6235354;22;20011;-80
2023/04/23 06:18:26;;;;;;;5.75;3.13;;;20.50;45.40;;;;;;6240795;23;20582;-79
2023/04/23 06:20:52;;;;;;;3.83;3.03;;;20.60;45.30;;;;;;6239030;23;20142;-78
2023/04/23 06:23:18;;;;;;;4.22;2.80;;;20.60;45.20;;;;;;6213352;23;20367;-80
2023/04/23 06:25:44;;;;;;;6.10;3.03;;;20.60;45.10;;;;;;6239551;22;20012;-79
2023/04/23 06:28:10;;;;;;;4.97;3.00;;;20.70;45.10;;;;;;6214678;22;20019;-79
2023/04/23 06:30:49;;;;;;;3.90;2.90;;;20.80;45.20;;;;;;6214687;22;20014;-81
2023/04/23 06:33:15;;;;;;;6.20;2.78;;;20.80;45.10;;;;;;6214341;23;20095;-80
2023/04/23 06:35:41;;;;;;;4.53;2.83;;;20.90;43.70;;;;;;6240871;22;20493;-78
2023/04/23 06:38:07;;;;;;;4.75;2.80;;;21.00;42.90;;;;;;6238496;23;20494;-83
2023/04/23 06:40:33;;;;;;;5.50;3.13;;;21.00;41.90;;;;;;6240602;22;20027;-79
2023/04/23 06:43:03;;;;;;;4.85;3.03;;;21.10;41.30;;;;;;6213899;22;20102;-79
2023/04/23 06:45:46;;;;;;;4.28;2.88;;;21.10;40.80;;;;;;6239866;23;20510;-78
2023/04/23 06:48:12;;;;;;;6.40;3.13;;;21.10;40.50;;;;;;6241113;23;20016;-79
2023/04/23 06:50:39;;;;;;;6.13;3.30;;;21.10;40.30;;;;;;6241052;22;20020;-82
2023/04/23 06:53:05;;;;;;;4.75;2.90;;;21.10;40.30;;;;;;6238059;23;20562;-77
2023/04/23 06:55:31;;;;;;;4.53;2.95;;;21.10;40.00;;;;;;6240298;22;20122;-78
2023/04/23 06:57:57;;;;;;;5.68;3.60;;;21.10;39.90;;;;;;6238742;22;20016;-80
2023/04/23 07:00:24;;;;;;;4.05;3.10;;;21.20;40.00;;;;;;6214147;23;20082;-79
2023/04/23 07:02:50;;;;;;;5.85;2.85;;;21.20;39.90;;;;;;6238354;23;20016;-81
2023/04/23 07:05:17;;;;;;;5.05;3.40;;;21.20;39.80;;;;;;6264524;22;20105;-78
2023/04/23 07:07:43;;;;;;;5.10;3.05;;;21.20;39.80;;;;;;6262845;22;20012;-78
2023/04/23 07:10:11;;;;;;;5.68;3.08;;;21.30;39.80;;;;;;6213334;22;20475;-78
2023/04/23 07:12:38;;;;;;;4.40;2.95;;;21.30;39.70;;;;;;6240490;22;20371;-81
2023/04/23 07:15:05;;;;;;;3.72;3.10;;;21.20;39.40;;;;;;6237765;23;20227;-79
2023/04/23 07:17:32;;;;;;;4.28;3.20;;;21.30;39.50;;;;;;6212930;23;20028;-83
2023/04/23 07:19:58;;;;;;;5.93;3.33;;;21.30;39.60;;;;;;6238706;23;20482;-81
2023/04/23 07:22:25;;;;;;;4.93;2.75;;;21.30;39.70;;;;;;6213811;23;20051;-81
2023/04/23 07:24:52;;;;;;;4.78;3.22;;;21.40;39.70;;;;;;6238514;22;20320;-81
2023/04/23 07:27:18;;;;;;;5.80;3.22;;;21.40;40.10;;;;;;6213452;23;20100;-80
2023/04/23 07:29:44;;;;;;;6.28;2.90;;;21.50;39.70;;;;;;6239721;22;20027;-78
2023/04/23 07:32:11;;;;;;;5.38;3.20;;;21.50;39.30;;;;;;6239557;22;20016;-79
2023/04/23 07:34:37;;;;;;;5.35;3.10;;;21.50;39.00;;;;;;6212922;23;20024;-79
2023/04/23 07:37:03;;;;;;;5.35;3.28;;;21.60;39.10;;;;;;6238259;22;20566;-81
2023/04/23 07:39:29;;;;;;;5.10;3.20;;;21.50;38.90;;;;;;6241452;23;20032;-80
2023/04/23 07:41:55;;;;;;;4.88;2.90;;;21.60;38.90;;;;;;6214003;23;20012;-84
2023/04/23 07:44:21;;;;;;;3.95;2.95;;;21.60;38.80;;;;;;6239717;23;20016;-80
2023/04/23 07:46:47;;;;;;;4.28;3.00;;;21.60;38.60;;;;;;6241226;22;20359;-81
2023/04/23 07:49:13;;;;;;;5.65;3.20;;;21.60;38.70;;;;;;6214674;23;20095;-86
2023/04/23 07:51:40;;;;;;;12.35;3.30;;;21.70;38.50;;;;;;6239609;23;20008;-82
2023/04/23 07:54:08;;;;;;;4.68;3.10;;;21.60;38.30;;;;;;6213029;23;20024;-84
2023/04/23 07:56:35;;;;;;;4.47;2.90;;;21.70;38.40;;;;;;6239202;23;20077;-82
2023/04/23 07:59:01;;;;;;;4.30;3.00;;;21.70;38.40;;;;;;6238837;23;20012;-80
2023/04/23 08:01:28;;;;;;;4.68;3.00;;;21.70;38.10;;;;;;6238687;23;20019;-78
2023/04/23 08:03:59;;;;;;;4.18;2.97;;;21.70;38.00;;;;;;6213362;22;20015;-85
2023/04/23 08:06:26;;;;;;;2.90;2.63;;;21.80;37.70;;;;;;6214705;23;20000;-79
2023/04/23 08:08:54;;;;;;;4.50;2.85;;;21.80;38.10;;;;;;6241123;22;20040;-79
2023/04/23 08:11:20;;;;;;;3.03;2.72;;;21.80;38.30;;;;;;6241691;22;20099;-81
2023/04/23 08:13:46;;;;;;;6.82;4.28;;;21.80;38.70;;;;;;6264936;22;20107;-82
2023/04/23 08:16:12;;;;;;;5.95;3.70;;;21.90;39.00;;;;;;6243574;22;20035;-86
2023/04/23 08:18:38;;;;;;;5.90;4.10;;;21.90;38.80;;;;;;6214403;23;20333;-82
2023/04/23 08:21:05;;;;;;;6.90;4.70;;;21.90;38.10;;;;;;6241076;22;20146;-83
2023/04/23 08:23:31;;;;;;;7.18;4.97;;;21.90;38.40;;;;;;6189795;23;20016;-81
2023/04/23 08:25:57;;;;;;;7.75;5.15;;;21.90;38.70;;;;;;6264546;22;20038;-83
2023/04/23 08:28:23;;;;;;;10.55;5.07;;;21.90;40.30;;;;;;6239379;23;20012;-85
2023/04/23 08:30:49;;;;;;;9.35;5.43;;;21.90;40.70;;;;;;6214598;22;20043;-86
2023/04/23 08:33:15;;;;;;;8.68;5.72;;;22.00;40.60;;;;;;6213303;23;20040;-85
2023/04/23 08:35:41;;;;;;;8.27;5.80;;;21.90;40.40;;;;;;6187177;23;20473;-82
2023/04/23 08:38:07;;;;;;;7.82;4.85;;;22.00;40.00;;;;;;6213026;23;20115;-85
2023/04/23 08:40:36;;;;;;;7.00;4.65;;;22.00;40.20;;;;;;6213229;23;20040;-83
2023/04/23 08:43:09;;;;;;;6.20;4.85;;;22.00;40.10;;;;;;6238059;22;20012;-82
2023/04/23 08:45:40;;;;;;;6.90;4.30;;;22.00;40.10;;;;;;6239049;23;20035;-82
2023/04/23 08:48:08;;;;;;;6.13;4.18;;;22.00;39.70;;;;;;6213616;23;20046;-83
2023/04/23 08:50:37;;;;;;;6.10;4.20;;;22.00;39.80;;;;;;6213466;23;20061;-83
2023/04/23 08:53:05;;;;;;;5.80;3.95;;;22.00;39.10;;;;;;6237997;23;20012;-84
2023/04/23 08:55:33;;;;;;;6.75;3.97;;;22.00;38.90;;;;;;6238357;23;20523;-84
2023/04/23 08:58:01;;;;;;;4.88;3.03;;;22.00;38.40;;;;;;6238582;22;20354;-82
2023/04/23 09:00:28;;;;;;;3.67;2.60;;;22.10;37.80;;;;;;6240266;23;20007;-85
2023/04/23 09:02:55;;;;;;;4.15;2.80;;;22.10;38.60;;;;;;6188630;23;20020;-85
2023/04/23 09:05:21;;;;;;;5.72;2.60;;;22.10;38.90;;;;;;6188523;23;20028;-84
2023/04/23 09:07:47;;;;;;;2.83;2.30;;;22.10;39.00;;;;;;6238191;23;20023;-82
2023/04/23 09:10:14;;;;;;;3.90;2.15;;;22.10;38.00;;;;;;6240027;22;20012;-83
2023/04/23 09:12:41;;;;;;;2.63;2.30;;;22.10;37.80;;;;;;6239524;23;20015;-84
2023/04/23 09:15:11;;;;;;;3.05;2.30;;;22.10;37.60;;;;;;6213204;23;20027;-83
2023/04/23 09:17:42;;;;;;;2.97;2.28;;;22.10;37.60;;;;;;6239811;23;20031;-84
2023/04/23 09:20:09;;;;;;;6.25;2.22;;;22.10;37.30;;;;;;6240629;23;20039;-87
2023/04/23 09:22:43;;;;;;;4.05;2.60;;;22.10;37.50;;;;;;6215596;23;20027;-83
2023/04/23 09:25:11;;;;;;;2.40;2.00;;;22.10;37.60;;;;;;6240676;22;20020;-84
2023/04/23 09:27:38;;;;;;;3.13;2.33;;;22.10;37.30;;;;;;6241465;23;20467;-83
2023/04/23 09:30:06;;;;;;;6.00;2.80;;;22.00;37.00;;;;;;6240747;23;20075;-84
2023/04/23 09:32:38;;;;;;;3.50;2.40;;;22.00;36.90;;;;;;6215595;23;20024;-84
2023/04/23 09:35:10;;;;;;;5.65;2.55;;;22.00;36.90;;;;;;6241789;23;20031;-84
2023/04/23 09:37:36;;;;;;;4.93;2.80;;;22.00;37.10;;;;;;6240372;23;20486;-83
2023/04/23 09:40:07;;;;;;;3.25;2.40;;;22.00;36.60;;;;;;6215045;22;20019;-84
2023/04/23 09:42:34;;;;;;;3.42;2.25;;;22.00;36.50;;;;;;6242257;23;20450;-83
2023/04/23 09:45:10;;;;;;;5.07;2.58;;;21.90;36.50;;;;;;6240382;23;20027;-83
2023/04/23 09:47:39;;;;;;;;;;;21.90;36.60;;;;;;6242816;22;20020;-83
2023/04/23 09:50:09;;;;;;;4.93;2.90;;;21.90;36.90;;;;;;6241933;22;19911;-83
2023/04/23 09:52:38;;;;;;;4.45;2.67;;;21.90;36.50;;;;;;6242181;22;20071;-83
2023/04/23 09:55:05;;;;;;;3.58;2.45;;;21.90;36.50;;;;;;6241600;22;20008;-86
2023/04/23 09:57:39;;;;;;;3.88;2.78;;;21.80;36.60;;;;;;6241263;23;20016;-84
2023/04/23 10:00:19;;;;;;;4.00;2.70;;;21.80;36.90;;;;;;6240600;23;20140;-83
2023/04/23 10:02:50;;;;;;;2.83;2.55;;;21.80;36.60;;;;;;6240029;23;20020;-84
2023/04/23 10:05:17;;;;;;;2.55;2.17;;;21.80;36.40;;;;;;6217557;23;20032;-85
2023/04/23 10:07:48;;;;;;;4.15;2.67;;;21.80;36.40;;;;;;6192440;23;20066;-84
2023/04/23 10:10:14;;;;;;;4.68;3.67;;;21.70;36.40;;;;;;6192635;23;20023;-88
2023/04/23 10:12:45;;;;;;;4.10;2.38;;;21.70;36.70;;;;;;6192800;23;20019;-85
2023/04/23 10:15:13;;;;;;;3.92;2.80;;;21.70;37.30;;;;;;6216497;23;20371;-84
2023/04/23 10:17:40;;;;;;;3.78;2.40;;;21.70;37.30;;;;;;6217554;23;20024;-83
2023/04/23 10:20:07;;;;;;;3.03;2.55;;;21.70;37.20;;;;;;6268560;22;20498;-83
2023/04/23 10:22:36;;;;;;;2.70;2.25;;;21.70;36.80;;;;;;6242357;23;20095;-83
2023/04/23 10:25:10;;;;;;;4.05;2.60;;;21.70;36.60;;;;;;6216156;22;20012;-86
2023/04/23 10:27:45;;;;;;;3.83;2.47;;;21.70;37.00;;;;;;6217733;23;20638;-83
2023/04/23 10:30:13;;;;;;;3.75;2.72;;;21.70;36.70;;;;;;6244159;22;20055;-83
2023/04/23 10:32:40;;;;;;;4.80;2.28;;;21.70;36.60;;;;;;6242297;23;20095;-84
2023/04/23 10:35:07;;;;;;;2.58;2.03;;;21.70;36.40;;;;;;6240839;23;20101;-84
2023/04/23 10:37:34;;;;;;;2.75;2.05;;;21.70;36.40;;;;;;6239987;23;20483;-85
2023/04/23 10:40:11;;;;;;;4.57;2.35;;;21.70;36.80;;;;;;6215187;22;20023;-86
2023/04/23 10:42:39;;;;;;;2.55;2.35;;;21.70;36.90;;;;;;6241200;23;20058;-83
2023/04/23 10:45:19;;;;;;;3.15;2.13;;;21.70;37.00;;;;;;6189646;23;20019;-84
2023/04/23 10:47:46;;;;;;;2.40;1.80;;;21.70;36.70;;;;;;6243191;22;20022;-82
2023/04/23 10:50:19;;;;;;;2.78;1.90;;;21.70;36.40;;;;;;6267560;22;20036;-81
2023/04/23 10:52:52;;;;;;;3.85;1.88;;;21.70;36.40;;;;;;6243996;22;20043;-81
2023/04/23 10:55:23;;;;;;;4.82;2.38;;;21.70;36.50;;;;;;6242338;23;20059;-81
2023/04/23 10:58:01;;;;;;;2.97;2.30;;;21.70;36.90;;;;;;6242371;22;20058;-81
2023/04/23 11:00:29;;;;;;;3.13;2.08;;;21.70;37.30;;;;;;6244045;23;20424;-80
2023/04/23 11:02:55;;;;;;;3.25;2.00;;;21.70;37.60;;;;;;6241982;23;20098;-81
2023/04/23 11:05:24;;;;;;;2.55;1.98;;;21.70;37.40;;;;;;6243346;22;20494;-83
2023/04/23 11:08:05;;;;;;;5.13;2.08;;;21.70;37.60;;;;;;6215766;23;20012;-84
2023/04/23 11:10:32;;;;;;;3.40;2.10;;;21.70;37.80;;;;;;6216333;23;20023;-84
2023/04/23 11:13:25;;;;;;;3.55;2.20;;;21.70;38.70;;;;;;6243108;22;20012;-84
2023/04/23 11:16:17;;;;;;;4.20;2.50;;;21.70;38.70;;;;;;6215998;22;20023;-85
2023/04/23 11:19:03;;;;;;;5.25;2.40;;;21.70;39.00;;;;;;6241374;23;20047;-83
2023/04/23 11:22:04;;;;;;;5.10;2.58;;;21.70;39.70;;;;;;6241719;23;20012;-80
2023/04/23 11:24:36;;;;;;;2.60;2.25;;;21.80;39.80;;;;;;6191351;23;20023;-84
2023/04/23 11:27:06;;;;;;;2.95;2.30;;;21.80;39.80;;;;;;6244417;22;20071;-85
2023/04/23 11:29:32;;;;;;;5.13;2.28;;;21.80;38.80;;;;;;6215458;23;20023;-85
2023/04/23 11:31:59;;;;;;;3.17;2.25;;;21.80;38.60;;;;;;6215025;23;20020;-81
2023/04/23 11:34:25;;;;;;;2.65;2.30;;;21.80;38.40;;;;;;6241277;23;20145;-86
2023/04/23 11:36:53;;;;;;;3.47;2.25;;;21.80;38.40;;;;;;6215823;22;20091;-81
2023/04/23 11:39:23;;;;;;;4.97;2.25;;;21.80;38.30;;;;;;6239956;23;20035;-85
2023/04/23 11:41:51;;;;;;;2.38;1.88;;;21.80;37.90;;;;;;6244493;22;20047;-83
2023/04/23 11:44:19;;;;;;;3.35;2.08;;;21.80;37.90;;;;;;6190393;23;20037;-80
2023/04/23 11:46:47;;;;;;;3.25;2.10;;;21.80;38.00;;;;;;6237613;23;20024;-81
2023/04/23 11:49:13;;;;;;;2.83;2.05;;;21.80;37.70;;;;;;6239670;22;20084;-85
2023/04/23 11:51:44;;;;;;;3.20;2.10;;;21.80;37.50;;;;;;6188344;23;20035;-83
2023/04/23 11:54:12;;;;;;;5.15;2.40;;;21.70;37.80;;;;;;6212508;23;20487;-83
2023/04/23 11:56:39;;;;;;;3.53;2.20;;;21.80;37.90;;;;;;6239604;22;20089;-84
2023/04/23 11:59:05;;;;;;;2.55;2.20;;;21.70;38.60;;;;;;6187151;23;20020;-81
2023/04/23 12:01:42;;;;;;;2.97;1.85;;;21.70;38.90;;;;;;6210196;23;20031;-83
2023/04/23 12:04:13;;;;;;;2.17;1.98;;;21.80;38.70;;;;;;6237585;22;20020;-81
2023/04/23 12:06:44;;;;;;;3.97;2.20;;;21.80;38.40;;;;;;6238954;23;20007;-84
2023/04/23 12:09:11;;;;;;;2.78;2.05;;;21.80;38.30;;;;;;6213569;23;20039;-87
2023/04/23 12:11:39;;;;;;;2.65;2.40;;;21.80;38.40;;;;;;6188871;23;20502;-84
2023/04/23 12:14:07;;;;;;;2.83;1.88;;;21.80;38.40;;;;;;6238880;23;20016;-85
2023/04/23 12:16:38;;;;;;;2.75;1.85;;;21.70;38.10;;;;;;6212363;23;20020;-83
2023/04/23 12:19:07;;;;;;;3.63;1.80;;;21.80;38.20;;;;;;6239066;22;20011;-83
2023/04/23 12:21:33;;;;;;;3.38;2.20;;;21.70;38.90;;;;;;6238284;23;20000;-83
2023/04/23 12:24:03;;;;;;;2.58;2.15;;;21.70;39.60;;;;;;6238021;23;20012;-87
2023/04/23 12:26:30;;;;;;;2.13;1.80;;;21.70;39.50;;;;;;6214299;23;20074;-85
2023/04/23 12:28:58;;;;;;;3.08;2.40;;;21.80;39.40;;;;;;6214066;23;20020;-87
2023/04/23 12:31:29;;;;;;;3.35;2.20;;;21.80;39.70;;;;;;6238160;23;20012;-86
2023/04/23 12:34:05;;;;;;;3.40;1.85;;;21.80;38.60;;;;;;6213327;22;20045;-85
2023/04/23 12:36:32;;;;;;;2.67;2.17;;;21.80;38.60;;;;;;6214715;23;20008;-86
2023/04/23 12:39:31;;;;;;;4.07;2.20;;;21.80;39.00;;;;;;6188812;23;20534;-88
2023/04/23 12:42:03;;;;;;;4.45;2.38;;;21.80;38.90;;;;;;6212570;23;20486;-86
2023/04/23 12:44:30;;;;;;;6.45;1.92;;;21.80;38.50;;;;;;6237091;23;20019;-84
2023/04/23 12:47:02;;;;;;;3.30;1.88;;;21.70;38.30;;;;;;6236194;23;20036;-84